x

Canaveral East - 120nm East Of Cape Canaveral (41010) Wave Buoy

1:50pm - Mon 1st Sep 2014 All times are EDT. -4 hours from GMT.

  • Sig Wave height 2.3ft
  • Swell Direction
  • Peak Period 9s
  • Average Period 6s
  • Wind
    4mph, 7mph gusts
  • Sea Temp 85°f
  • Air Temp 83°f
  • Sea Pressure 1020.3mb
  • Canaveral East - 120nm East Of Cape Canaveral
  • Canaveral East - 120nm East Of Cape Canaveral

More Historic Weather Station data

Upgrade to MSW Pro to gain access to the past 30 days of data for over 8000 Wavebouys and Weather Stations around the globe.

Join Pro

Comparision Forecast

View Surf forecast
   
Mon 09/01 1:50pm 2.5ft 9s 6s 4 7 mph 1020.3mb 85f 83f
1:20pm  -   -   -  4 7 mph 1020.5mb 85f 83f
12:50pm 2.5ft 8s 6s 4 7 mph 1020.7mb 85f 83f
12:20pm  -   -   -  4 7 mph 1020.8mb 85f 83f
11:50am 2.5ft 9s 6s 7 9 mph 1020.8mb 85f 83f
11:20am  -   -   -  7 9 mph 1020.9mb 84f 83f
10:50am 2.5ft 9s 6s 9
mph
1020.9mb 84f 83f
10:20am  -   -   -  7 9 mph 1020.7mb 84f 82f
9:50am 2.5ft 9s 6s 7 9 mph 1020.5mb 84f 82f
9:20am  -   -   -  7 9 mph 1020.3mb 84f 82f
8:50am 2.5ft 9s 6s 7 9 mph 1020.4mb 84f 82f
8:20am  -   -   -  7 9 mph 1020.3mb 84f 83f
7:50am 3ft 9s 6s 7 11 mph 1020mb 84f 82f
7:20am  -   -   -  9
mph
1019.7mb 84f 82f
6:50am 3ft 8s 6s 7 9 mph 1019.5mb 84f 82f
6:20am  -   -   -  7 9 mph 1019.2mb 84f 82f
5:50am 2.5ft 9s 6s 7 9 mph 1019.1mb 84f 82f
5:20am  -   -   -  7
mph
1019mb 84f 82f
4:50am 3ft 8s 6s 4 7 mph 1019.1mb 84f 82f
4:20am  -   -   -  4 7 mph 1019.4mb 84f 83f
3:50am 3ft 9s 6s 4 7 mph 1019.4mb 84f 83f
3:20am  -   -   -  4 7 mph 1019.6mb 84f 83f
2:50am 3ft 9s 6s 4 7 mph 1019.8mb 84f 83f
2:20am  -   -   -  7 9 mph 1020.1mb 84f 83f
1:50am 3ft 8s 6s 7 9 mph 1020.4mb 84f 83f
1:20am  -   -   -  7 9 mph 1020.7mb 84f 83f
12:50am 3ft 8s 6s 7 9 mph 1020.8mb 84f 83f
12:20am  -   -   -  9
mph
1020.8mb 84f 83f
Sun 08/31 11:50pm 3ft 9s 6s 7 11 mph 1021mb 84f 83f
11:20pm  -   -   -  7 9 mph 1021.1mb 84f 83f
10:50pm 3.5ft 9s 6s 7 9 mph 1021.1mb 84f 83f
9:50pm 3.5ft 8s 6s 9 11 mph 1020.5mb 84f 83f
9:20pm  -   -   -  9 11 mph 1020mb 85f 83f
8:50pm 3.5ft 9s 6s 11
mph
1019.6mb 85f 83f
8:20pm  -   -   -  9 11 mph 1019.6mb 85f 83f
7:50pm 3ft 8s 6s 9 11 mph 1019.5mb 85f 83f
6:50pm 2.5ft 8s 6s 11 13 mph 1019.4mb 85f 83f
6:20pm  -   -   -  7 11 mph 1019.5mb 85f 83f
5:50pm 3ft 9s 6s 4 7 mph 1019.6mb 85f 83f
5:20pm  -   -   -  7
mph
1019.7mb 85f 83f
4:50pm 2.5ft 9s 6s 9 13 mph 1019.5mb 85f 82f
4:20pm  -   -   -  9
mph
1019.8mb 85f 83f
3:50pm 2.5ft 9s 6s 7 9 mph 1019.9mb 85f 83f
3:20pm  -   -   -  7 9 mph 1020.2mb 85f 83f
2:50pm 2.5ft 9s 6s 7 9 mph 1020.4mb 85f 83f
2:20pm  -   -   -  9 11 mph 1020.6mb 85f 83f
1:50pm 2.5ft 9s 6s 9
mph
1021.1mb 85f 83f
1:20pm  -   -   -  7 9 mph 1021.2mb 85f 83f
12:50pm 3ft 9s 6s 7 9 mph 1021.5mb 85f 83f
12:20pm  -   -   -  7 9 mph 1021.6mb 84f 83f
11:50am 3.5ft 10s 6s 7 9 mph 1021.9mb 84f 83f
11:20am  -   -   -  7 9 mph 1021.8mb 84f 83f
10:50am 3ft 10s 6s 7 9 mph 1021.6mb 84f 83f
10:20am  -   -   -  9
mph
1021.5mb 84f 83f
9:50am 3ft 9s 6s 7 9 mph 1021.6mb 84f 83f
9:20am  -   -   -  4 7 mph 1021.5mb 83f 83f
8:50am 3.5ft 10s 6s 7
mph
1021.4mb 83f 83f
8:20am  -   -   -  7 9 mph 1021.3mb 83f 83f
7:50am 3.5ft 10s 6s 7 9 mph 1021.2mb 83f 83f
7:20am  -   -   -  2 4 mph 1021.2mb 83f 82f
6:50am 3.5ft 9s 6s 4 7 mph 1021.1mb 83f 82f
6:20am  -   -   -  11 13 mph 1020.9mb 83f 81f
5:50am 3.5ft 10s 6s 7 9 mph 1020.9mb 83f 83f
5:20am  -   -   -  4 7 mph 1020.7mb 83f 83f
4:50am 3.5ft 9s 6s 4 7 mph 1020.7mb 84f 83f
4:20am  -   -   -  4 7 mph 1020.5mb 84f 83f
3:50am 3.5ft 10s 6s 7 9 mph 1020.6mb 85f 83f
3:20am  -   -   -  7 9 mph 1020.7mb 85f 82f
2:50am 3.5ft 9s 7s 4 11 mph 1020.8mb 85f 81f
2:20am  -   -   -   -  2 mph 1021.2mb 85f 82f
1:50am 3.5ft 8s 6s 4 7 mph 1021.3mb 85f 82f
1:20am  -   -   -  4 9 mph 1021.2mb 85f 82f
12:50am 3.5ft 10s 6s 7 9 mph 1021mb 85f 82f
12:20am  -   -   -  4 7 mph 1021.1mb 84f 81f
Sat 08/30 11:50pm 3.5ft 8s 6s 11 16 mph 1021mb 85f 81f
11:20pm  -   -   -  4 7 mph 1021.2mb 85f 83f
10:50pm 3.5ft 10s 6s 7 9 mph 1021mb 85f 83f
10:20pm  -   -   -  7
mph
1020.7mb 85f 83f
9:50pm 3.5ft 10s 6s 7 9 mph 1020.6mb 85f 83f
9:20pm  -   -   -  9 11 mph 1020.1mb 85f 83f
8:50pm 3.5ft 8s 6s 9 11 mph 1019.8mb 85f 83f
8:20pm  -   -   -  9 11 mph 1019.6mb 85f 83f
7:50pm 3.5ft 9s 6s 9 13 mph 1019.6mb 85f 83f
7:20pm  -   -   -  13 20 mph 1019.3mb 85f 83f
6:50pm 3.5ft 10s 6s 11 13 mph 1019.4mb 85f 83f
6:20pm  -   -   -  11 13 mph 1019.2mb 86f 84f
5:50pm 3ft 8s 6s 11 13 mph 1019.4mb 86f 84f
5:20pm  -   -   -  11 13 mph 1019.5mb 86f 83f
4:50pm 3ft 8s 6s 9 11 mph 1019.6mb 85f 83f
4:20pm  -   -   -  9 11 mph 1019.7mb 85f 83f
3:50pm 3.5ft 8s 6s 7 9 mph 1019.9mb 85f 83f
3:20pm  -   -   -  7 9 mph 1019.8mb 86f 83f
2:50pm 3.5ft 8s 6s 7 9 mph 1020.2mb 85f 83f
2:20pm  -   -   -  7 9 mph 1020.4mb 86f 83f
1:20pm  -   -   -  4
mph
1020.7mb 87f 83f
12:50pm 3ft 8s 5s  -  2 mph 1020.9mb 86f 83f
12:20pm  -   -   -   -  2 mph 1021.1mb 85f 83f
11:50am 3ft 8s 5s 2 4 mph 1021.4mb 85f 83f
11:20am  -   -   -  4 7 mph 1021.7mb 84f 83f
10:50am 3ft 8s 5s 4 7 mph 1021.8mb 84f 82f
10:20am  -   -   -  9 11 mph 1021.6mb 84f 82f
9:50am 3ft 8s 5s 11 13 mph 1021.4mb 84f 82f
9:20am  -   -   -  11 13 mph 1021.5mb 84f 82f
8:50am 3ft 8s 5s 11 13 mph 1021.3mb 84f 82f
8:20am  -   -   -  13 18 mph 1021.3mb 84f 82f
7:50am 2.5ft 8s 6s 9 11 mph 1021.4mb 84f 83f
7:20am  -   -   -  9 11 mph 1021.2mb 84f 82f
6:50am 3ft 8s 6s 7
mph
1020.7mb 84f 82f
6:20am  -   -   -  9 11 mph 1020.5mb 84f 82f
5:50am 3ft 8s 6s 4 7 mph 1020.5mb 84f 82f
5:20am  -   -   -  4 7 mph 1019.8mb 84f 82f
4:50am 3ft 8s 6s 4 7 mph 1019.7mb 84f 82f
4:20am  -   -   -  7
mph
1019.6mb 84f 82f
3:50am 3ft 8s 6s 4 7 mph 1019mb 83f 82f
3:20am  -   -   -  2 4 mph 1018.8mb 84f 81f
2:50am 2.5ft 8s 6s 11 16 mph 1019.6mb 84f 80f
2:20am  -   -   -  2
mph
1020.1mb 84f 83f
1:50am 3.5ft 8s 7s 2 4 mph 1020.4mb 84f 83f
1:20am  -   -   -  2 4 mph 1020.5mb 84f 83f
12:50am 3ft 8s 6s 4 7 mph 1020.6mb 84f 83f
12:20am  -   -   -  4
mph
1020.5mb 84f 83f
Fri 08/29 11:50pm 3ft 8s 6s 2 4 mph 1020.6mb 84f 83f
11:20pm  -   -   -  4
mph
1020.6mb 84f 83f
10:50pm 2.5ft 7s 6s 4
mph
1020.2mb 84f 83f
10:20pm  -   -   -  4 7 mph 1020mb 84f 83f
9:50pm 3ft 8s 6s 2 4 mph 1019.6mb 84f 83f
9:20pm  -   -   -  2 4 mph 1019.5mb 83f 83f
8:50pm 3ft 8s 6s 2
mph
1019.1mb 84f 83f
8:20pm  -   -   -  2
mph
1018.6mb 84f 83f
7:50pm 3.5ft 7s 6s  -  2 mph 1018.7mb 84f 83f
7:20pm  -   -   -  2
mph
1018.7mb 84f 83f
6:50pm 3ft 8s 6s 2
mph
1018.6mb 84f 84f
6:20pm  -   -   -  2
mph
1018.4mb 84f 85f
5:50pm 3ft 8s 6s 2 4 mph 1018mb 84f 84f
5:20pm  -   -   -  2
mph
1017.9mb 84f 83f
4:50pm 2.5ft 8s 6s 2
mph
1017.9mb 84f 83f
4:20pm  -   -   -   -  2 mph 1017.8mb 83f 83f
3:50pm 3.5ft 8s 6s  -  2 mph 1018mb 83f 82f
3:20pm  -   -   -   -  2 mph 1018.4mb 83f 82f
2:50pm 3ft 8s 6s 2
mph
1018.8mb 83f 80f
2:20pm  -   -   -  2
mph
1018.8mb 82f 79f
1:50pm 3ft 8s 6s 2 4 mph 1019.2mb 82f 79f
1:20pm  -   -   -  7 25 mph 1019.5mb 82f 79f
12:50pm 3ft 8s 6s 11 13 mph 1019.3mb 83f 78f
12:20pm  -   -   -  16 20 mph 1019mb 83f 79f
11:50am 3.5ft 8s 6s 4 7 mph 1019.1mb 83f 84f
11:20am  -   -   -  11 13 mph 1018.7mb 83f 84f
10:50am 3ft 8s 6s 9 11 mph 1018.7mb 83f 84f
10:20am  -   -   -  7 9 mph 1018.7mb 83f 83f
9:50am 3.5ft 8s 6s 4 7 mph 1018.4mb 83f 83f
9:20am  -   -   -  4 7 mph 1018.2mb 83f 83f
8:50am 3.5ft 8s 7s 4 7 mph 1018.2mb 83f 82f
8:20am  -   -   -  2 4 mph 1018.1mb 83f 82f
7:50am 3.5ft 8s 6s 4 7 mph 1018mb 83f 82f
7:20am  -   -   -  7 9 mph 1017.9mb 83f 82f
6:50am 3.5ft 8s 7s 7 9 mph 1017.6mb 83f 82f
6:20am  -   -   -  9 11 mph 1017.2mb 83f 82f
5:50am 3.5ft 8s 7s 4 7 mph 1017mb 83f 82f
5:20am  -   -   -  4 7 mph 1016.9mb 83f 82f
4:50am 3.5ft 8s 6s 9
mph
1016.8mb 83f 82f
4:20am  -   -   -  11 13 mph 1016.8mb 83f 82f
3:50am 3.5ft 8s 7s 9
mph
1016.8mb 83f 82f
3:20am  -   -   -  11 13 mph 1016.8mb 83f 82f
2:50am 3.5ft 9s 7s 7 9 mph 1016.9mb 83f 83f
2:20am  -   -   -  7
mph
1016.9mb 83f 83f
1:50am 4ft 8s 7s 7
mph
1017.1mb 83f 83f
1:20am  -   -   -  7 9 mph 1017.3mb 84f 83f
12:50am 4ft 8s 7s 7 9 mph 1017.5mb 84f 83f
12:20am  -   -   -  9
mph
1017.6mb 84f 83f
Thu 08/28 11:50pm 4.5ft 9s 7s 7 9 mph 1017.6mb 84f 83f
11:20pm  -   -   -  7 9 mph 1017.6mb 84f 83f
10:50pm 4ft 9s 7s 7 9 mph 1017.7mb 84f 83f
10:20pm  -   -   -  9 11 mph 1017.5mb 84f 83f
9:50pm 4.5ft 8s 7s 7 9 mph 1017.2mb 84f 83f
9:20pm  -   -   -  7 9 mph 1016.9mb 84f 83f
8:50pm 5.5ft 9s 8s 7 9 mph 1016.7mb 84f 83f
8:20pm  -   -   -  7 9 mph 1016.2mb 84f 83f
7:50pm 5ft 9s 8s 7 9 mph 1015.8mb 84f 83f
7:20pm  -   -   -  7 9 mph 1015.6mb 84f 83f
6:50pm 5.5ft 10s 8s 7 9 mph 1015.6mb 85f 83f